sensor_id;sensor_type;location;lat;lon;timestamp;pressure;altitude;pressure_sealevel;temperature;humidity
82222;BME280;71818;52.352;10.912;2023-12-20T00:02:11;99762.09;;;4.89;100.00
82222;BME280;71818;52.352;10.912;2023-12-20T00:04:37;99753.19;;;4.91;100.00
82222;BME280;71818;52.352;10.912;2023-12-20T00:07:02;99758.44;;;4.91;100.00
82222;BME280;71818;52.352;10.912;2023-12-20T00:09:28;99748.00;;;4.90;100.00
82222;BME280;71818;52.352;10.912;2023-12-20T00:11:53;99750.63;;;4.90;100.00
82222;BME280;71818;52.352;10.912;2023-12-20T00:14:19;99745.38;;;4.90;100.00
82222;BME280;71818;52.352;10.912;2023-12-20T00:16:44;99741.88;;;4.89;100.00
82222;BME280;71818;52.352;10.912;2023-12-20T00:19:09;99742.72;;;4.90;100.00
82222;BME280;71818;52.352;10.912;2023-12-20T00:21:35;99736.63;;;4.89;100.00
82222;BME280;71818;52.352;10.912;2023-12-20T00:24:00;99738.41;;;4.89;100.00
82222;BME280;71818;52.352;10.912;2023-12-20T00:26:26;99754.13;;;4.90;100.00
82222;BME280;71818;52.352;10.912;2023-12-20T00:28:53;99756.66;;;4.92;100.00
82222;BME280;71818;52.352;10.912;2023-12-20T00:31:18;99752.25;;;4.92;100.00
82222;BME280;71818;52.352;10.912;2023-12-20T00:33:44;99759.22;;;4.63;100.00
82222;BME280;71818;52.352;10.912;2023-12-20T00:36:11;99747.53;;;4.53;100.00
82222;BME280;71818;52.352;10.912;2023-12-20T00:38:36;99750.19;;;4.53;100.00
82222;BME280;71818;52.352;10.912;2023-12-20T00:41:02;99743.88;;;4.56;100.00
82222;BME280;71818;52.352;10.912;2023-12-20T00:43:27;99744.16;;;4.51;100.00
82222;BME280;71818;52.352;10.912;2023-12-20T00:45:53;99749.75;;;4.61;100.00
82222;BME280;71818;52.352;10.912;2023-12-20T00:48:18;99743.97;;;4.54;100.00
82222;BME280;71818;52.352;10.912;2023-12-20T00:50:44;99756.38;;;4.52;100.00
82222;BME280;71818;52.352;10.912;2023-12-20T00:53:09;99753.16;;;4.47;100.00
82222;BME280;71818;52.352;10.912;2023-12-20T00:55:35;99751.91;;;4.38;100.00
82222;BME280;71818;52.352;10.912;2023-12-20T00:58:00;99758.75;;;4.41;100.00
82222;BME280;71818;52.352;10.912;2023-12-20T01:00:25;99768.25;;;4.43;100.00
82222;BME280;71818;52.352;10.912;2023-12-20T01:02:51;99756.88;;;4.43;100.00
82222;BME280;71818;52.352;10.912;2023-12-20T01:05:18;99765.38;;;4.48;100.00
82222;BME280;71818;52.352;10.912;2023-12-20T01:07:43;99773.34;;;4.46;100.00
82222;BME280;71818;52.352;10.912;2023-12-20T01:10:09;99773.25;;;4.48;100.00
82222;BME280;71818;52.352;10.912;2023-12-20T01:12:36;99780.31;;;4.47;100.00
82222;BME280;71818;52.352;10.912;2023-12-20T01:15:02;99776.31;;;4.40;100.00
82222;BME280;71818;52.352;10.912;2023-12-20T01:17:27;99768.22;;;4.29;100.00
82222;BME280;71818;52.352;10.912;2023-12-20T01:19:52;99768.78;;;4.34;100.00
82222;BME280;71818;52.352;10.912;2023-12-20T01:22:18;99763.72;;;4.31;100.00
82222;BME280;71818;52.352;10.912;2023-12-20T01:24:44;99772.28;;;4.35;100.00
82222;BME280;71818;52.352;10.912;2023-12-20T01:27:09;99774.06;;;4.34;100.00
82222;BME280;71818;52.352;10.912;2023-12-20T01:29:35;99772.44;;;4.32;100.00
82222;BME280;71818;52.352;10.912;2023-12-20T01:32:03;99766.16;;;4.34;100.00
82222;BME280;71818;52.352;10.912;2023-12-20T01:34:28;99773.19;;;4.34;100.00
82222;BME280;71818;52.352;10.912;2023-12-20T01:36:54;99774.97;;;4.33;100.00
82222;BME280;71818;52.352;10.912;2023-12-20T01:39:19;99772.59;;;4.29;100.00
82222;BME280;71818;52.352;10.912;2023-12-20T01:41:44;99774.47;;;4.27;100.00
82222;BME280;71818;52.352;10.912;2023-12-20T01:44:11;99770.16;;;4.26;100.00
82222;BME280;71818;52.352;10.912;2023-12-20T01:46:36;99764.13;;;4.24;100.00
82222;BME280;71818;52.352;10.912;2023-12-20T01:49:02;99768.63;;;4.22;100.00
82222;BME280;71818;52.352;10.912;2023-12-20T01:51:27;99771.44;;;4.18;100.00
82222;BME280;71818;52.352;10.912;2023-12-20T01:53:55;99777.53;;;4.19;100.00
82222;BME280;71818;52.352;10.912;2023-12-20T01:56:23;99774.91;;;4.19;100.00
82222;BME280;71818;52.352;10.912;2023-12-20T01:58:49;99778.56;;;4.16;100.00
82222;BME280;71818;52.352;10.912;2023-12-20T02:01:15;99781.34;;;4.13;100.00
82222;BME280;71818;52.352;10.912;2023-12-20T02:03:41;99790.00;;;4.15;100.00
82222;BME280;71818;52.352;10.912;2023-12-20T02:06:08;99780.75;;;4.24;100.00
82222;BME280;71818;52.352;10.912;2023-12-20T02:08:34;99782.88;;;4.17;100.00
82222;BME280;71818;52.352;10.912;2023-12-20T02:11:00;99782.56;;;4.08;100.00
82222;BME280;71818;52.352;10.912;2023-12-20T02:13:25;99773.41;;;4.15;100.00
82222;BME280;71818;52.352;10.912;2023-12-20T02:15:52;99781.53;;;4.10;100.00
82222;BME280;71818;52.352;10.912;2023-12-20T02:18:17;99781.13;;;4.02;100.00
82222;BME280;71818;52.352;10.912;2023-12-20T02:20:43;99794.56;;;3.96;100.00
82222;BME280;71818;52.352;10.912;2023-12-20T02:23:08;99793.81;;;3.94;100.00
82222;BME280;71818;52.352;10.912;2023-12-20T02:25:34;99794.56;;;3.96;100.00
82222;BME280;71818;52.352;10.912;2023-12-20T02:27:59;99790.25;;;3.95;100.00
82222;BME280;71818;52.352;10.912;2023-12-20T02:30:25;99778.72;;;3.98;100.00
82222;BME280;71818;52.352;10.912;2023-12-20T02:32:51;99789.84;;;4.03;100.00
82222;BME280;71818;52.352;10.912;2023-12-20T02:35:17;99789.41;;;4.10;100.00
82222;BME280;71818;52.352;10.912;2023-12-20T02:37:43;99790.00;;;4.15;100.00
82222;BME280;71818;52.352;10.912;2023-12-20T02:40:08;99789.84;;;4.18;100.00
82222;BME280;71818;52.352;10.912;2023-12-20T02:42:34;99789.75;;;4.20;100.00
82222;BME280;71818;52.352;10.912;2023-12-20T02:44:59;99785.44;;;4.19;100.00
82222;BME280;71818;52.352;10.912;2023-12-20T02:47:24;99775.94;;;4.16;100.00
82222;BME280;71818;52.352;10.912;2023-12-20T02:49:50;99772.72;;;4.11;100.00
82222;BME280;71818;52.352;10.912;2023-12-20T02:52:15;99768.66;;;4.06;100.00
82222;BME280;71818;52.352;10.912;2023-12-20T02:54:41;99760.28;;;3.99;100.00
82222;BME280;71818;52.352;10.912;2023-12-20T02:57:06;99772.31;;;3.87;100.00
82222;BME280;71818;52.352;10.912;2023-12-20T02:59:32;99771.03;;;3.79;100.00
82222;BME280;71818;52.352;10.912;2023-12-20T03:01:57;99762.84;;;3.85;100.00
82222;BME280;71818;52.352;10.912;2023-12-20T03:04:23;99766.22;;;3.87;100.00
82222;BME280;71818;52.352;10.912;2023-12-20T03:06:48;99767.38;;;3.81;100.00
82222;BME280;71818;52.352;10.912;2023-12-20T03:09:13;99759.75;;;3.77;100.00
82222;BME280;71818;52.352;10.912;2023-12-20T03:11:39;99761.19;;;3.67;100.00
82222;BME280;71818;52.352;10.912;2023-12-20T03:14:04;99755.53;;;3.58;100.00
82222;BME280;71818;52.352;10.912;2023-12-20T03:16:30;99759.84;;;3.59;100.00
82222;BME280;71818;52.352;10.912;2023-12-20T03:18:56;99765.34;;;3.55;100.00
82222;BME280;71818;52.352;10.912;2023-12-20T03:21:22;99772.47;;;3.53;100.00
82222;BME280;71818;52.352;10.912;2023-12-20T03:23:47;99773.91;;;3.58;100.00
82222;BME280;71818;52.352;10.912;2023-12-20T03:26:13;99761.28;;;3.65;100.00
82222;BME280;71818;52.352;10.912;2023-12-20T03:28:39;99765.53;;;3.68;100.00
82222;BME280;71818;52.352;10.912;2023-12-20T03:31:04;99776.81;;;3.70;100.00
82222;BME280;71818;52.352;10.912;2023-12-20T03:33:30;99766.38;;;3.68;100.00
82222;BME280;71818;52.352;10.912;2023-12-20T03:35:55;99758.56;;;3.67;100.00
82222;BME280;71818;52.352;10.912;2023-12-20T03:38:21;99750.78;;;3.65;100.00
82222;BME280;71818;52.352;10.912;2023-12-20T03:40:49;99761.72;;;3.73;100.00
82222;BME280;71818;52.352;10.912;2023-12-20T03:43:15;99762.38;;;3.77;100.00
82222;BME280;71818;52.352;10.912;2023-12-20T03:45:42;99751.22;;;3.73;100.00
82222;BME280;71818;52.352;10.912;2023-12-20T03:48:07;99752.66;;;3.79;100.00
82222;BME280;71818;52.352;10.912;2023-12-20T03:50:34;99749.53;;;3.72;100.00
82222;BME280;71818;52.352;10.912;2023-12-20T03:52:59;99746.16;;;3.70;100.00
82222;BME280;71818;52.352;10.912;2023-12-20T03:55:25;99737.81;;;3.62;100.00
82222;BME280;71818;52.352;10.912;2023-12-20T03:57:50;99735.63;;;3.54;100.00
82222;BME280;71818;52.352;10.912;2023-12-20T04:00:15;99729.94;;;3.46;100.00
82222;BME280;71818;52.352;10.912;2023-12-20T04:02:42;99731.72;;;3.46;100.00
82222;BME280;71818;52.352;10.912;2023-12-20T04:05:08;99737.44;;;3.37;100.00
82222;BME280;71818;52.352;10.912;2023-12-20T04:07:35;99737.53;;;3.35;100.00
82222;BME280;71818;52.352;10.912;2023-12-20T04:10:00;99731.34;;;3.36;100.00
82222;BME280;71818;52.352;10.912;2023-12-20T04:12:27;99720.28;;;3.31;100.00
82222;BME280;71818;52.352;10.912;2023-12-20T04:14:53;99718.75;;;3.27;100.00
82222;BME280;71818;52.352;10.912;2023-12-20T04:17:19;99723.31;;;3.23;100.00
82222;BME280;71818;52.352;10.912;2023-12-20T04:19:45;99720.25;;;3.15;100.00
82222;BME280;71818;52.352;10.912;2023-12-20T04:22:10;99715.25;;;3.11;100.00
82222;BME280;71818;52.352;10.912;2023-12-20T04:24:36;99714.72;;;3.04;100.00
82222;BME280;71818;52.352;10.912;2023-12-20T04:27:02;99706.47;;;3.12;100.00
82222;BME280;71818;52.352;10.912;2023-12-20T04:29:28;99702.38;;;3.06;100.00
82222;BME280;71818;52.352;10.912;2023-12-20T04:31:53;99706.94;;;3.03;100.00
82222;BME280;71818;52.352;10.912;2023-12-20T04:34:19;99699.25;;;2.99;100.00
82222;BME280;71818;52.352;10.912;2023-12-20T04:36:45;99701.19;;;2.96;100.00
82222;BME280;71818;52.352;10.912;2023-12-20T04:39:12;99712.69;;;2.93;100.00
82222;BME280;71818;52.352;10.912;2023-12-20T04:41:38;99718.31;;;2.86;100.00
82222;BME280;71818;52.352;10.912;2023-12-20T04:44:03;99718.22;;;2.87;100.00
82222;BME280;71818;52.352;10.912;2023-12-20T04:46:29;99723.97;;;2.78;100.00
82222;BME280;71818;52.352;10.912;2023-12-20T04:48:54;99723.81;;;2.81;100.00
82222;BME280;71818;52.352;10.912;2023-12-20T04:51:20;99717.09;;;2.76;100.00
82222;BME280;71818;52.352;10.912;2023-12-20T04:53:46;99726.19;;;2.86;100.00
82222;BME280;71818;52.352;10.912;2023-12-20T04:56:11;99719.00;;;2.89;100.00
82222;BME280;71818;52.352;10.912;2023-12-20T04:58:37;99725.16;;;2.88;100.00
82222;BME280;71818;52.352;10.912;2023-12-20T05:01:03;99711.75;;;2.94;100.00
82222;BME280;71818;52.352;10.912;2023-12-20T05:03:30;99706.34;;;2.97;100.00
82222;BME280;71818;52.352;10.912;2023-12-20T05:05:56;99707.28;;;2.96;100.00
82222;BME280;71818;52.352;10.912;2023-12-20T05:08:23;99708.03;;;2.98;100.00
82222;BME280;71818;52.352;10.912;2023-12-20T05:10:50;99712.25;;;3.01;100.00
82222;BME280;71818;52.352;10.912;2023-12-20T05:13:16;99710.94;;;3.10;100.00
82222;BME280;71818;52.352;10.912;2023-12-20T05:15:42;99705.44;;;3.14;100.00
82222;BME280;71818;52.352;10.912;2023-12-20T05:18:07;99700.88;;;3.18;100.00
82222;BME280;71818;52.352;10.912;2023-12-20T05:20:33;99706.56;;;3.26;100.00
82222;BME280;71818;52.352;10.912;2023-12-20T05:22:58;99701.81;;;3.33;100.00
82222;BME280;71818;52.352;10.912;2023-12-20T05:25:23;99691.88;;;3.39;100.00
82222;BME280;71818;52.352;10.912;2023-12-20T05:27:50;99692.78;;;3.38;100.00
82222;BME280;71818;52.352;10.912;2023-12-20T05:30:16;99686.00;;;3.50;100.00
82222;BME280;71818;52.352;10.912;2023-12-20T05:32:41;99683.66;;;3.61;100.00
82222;BME280;71818;52.352;10.912;2023-12-20T05:35:07;99670.53;;;3.61;100.00
82222;BME280;71818;52.352;10.912;2023-12-20T05:37:32;99680.09;;;3.62;100.00
82222;BME280;71818;52.352;10.912;2023-12-20T05:39:58;99688.53;;;3.67;100.00
82222;BME280;71818;52.352;10.912;2023-12-20T05:42:23;99679.69;;;3.70;100.00
82222;BME280;71818;52.352;10.912;2023-12-20T05:44:48;99675.00;;;3.75;100.00
82222;BME280;71818;52.352;10.912;2023-12-20T05:47:14;99681.94;;;3.76;100.00
82222;BME280;71818;52.352;10.912;2023-12-20T05:49:39;99676.34;;;3.82;100.00
82222;BME280;71818;52.352;10.912;2023-12-20T05:52:05;99672.81;;;3.83;100.00
82222;BME280;71818;52.352;10.912;2023-12-20T05:54:30;99674.50;;;3.84;100.00
82222;BME280;71818;52.352;10.912;2023-12-20T05:56:56;99661.28;;;3.85;100.00
82222;BME280;71818;52.352;10.912;2023-12-20T05:59:21;99653.53;;;3.82;100.00
82222;BME280;71818;52.352;10.912;2023-12-20T06:01:47;99662.63;;;3.77;100.00
82222;BME280;71818;52.352;10.912;2023-12-20T06:04:12;99667.88;;;3.77;100.00
82222;BME280;71818;52.352;10.912;2023-12-20T06:06:42;99665.06;;;3.80;100.00
82222;BME280;71818;52.352;10.912;2023-12-20T06:09:07;99660.66;;;3.80;100.00
82222;BME280;71818;52.352;10.912;2023-12-20T06:11:33;99658.22;;;3.77;100.00
82222;BME280;71818;52.352;10.912;2023-12-20T06:13:58;99657.72;;;3.86;100.00
82222;BME280;71818;52.352;10.912;2023-12-20T06:16:24;99650.22;;;3.95;100.00
82222;BME280;71818;52.352;10.912;2023-12-20T06:18:49;99653.03;;;3.92;100.00
82222;BME280;71818;52.352;10.912;2023-12-20T06:21:15;99648.63;;;3.92;100.00
82222;BME280;71818;52.352;10.912;2023-12-20T06:23:41;99646.75;;;3.94;100.00
82222;BME280;71818;52.352;10.912;2023-12-20T06:26:06;99653.09;;;4.06;100.00
82222;BME280;71818;52.352;10.912;2023-12-20T06:28:32;99647.38;;;4.13;100.00
82222;BME280;71818;52.352;10.912;2023-12-20T06:30:57;99641.38;;;4.11;100.00
82222;BME280;71818;52.352;10.912;2023-12-20T06:33:23;99643.06;;;4.12;100.00
82222;BME280;71818;52.352;10.912;2023-12-20T06:35:49;99642.41;;;4.09;100.00
82222;BME280;71818;52.352;10.912;2023-12-20T06:38:15;99645.69;;;4.12;100.00
82222;BME280;71818;52.352;10.912;2023-12-20T06:40:41;99640.94;;;4.19;100.00
82222;BME280;71818;52.352;10.912;2023-12-20T06:43:08;99647.69;;;4.23;100.00
82222;BME280;71818;52.352;10.912;2023-12-20T06:45:33;99636.44;;;4.21;100.00
82222;BME280;71818;52.352;10.912;2023-12-20T06:47:58;99649.66;;;4.19;100.00
82222;BME280;71818;52.352;10.912;2023-12-20T06:50:24;99647.41;;;4.28;100.00
82222;BME280;71818;52.352;10.912;2023-12-20T06:52:49;99639.63;;;4.26;100.00
82222;BME280;71818;52.352;10.912;2023-12-20T06:55:15;99644.13;;;4.24;100.00
82222;BME280;71818;52.352;10.912;2023-12-20T06:57:42;99635.41;;;4.24;100.00
82222;BME280;71818;52.352;10.912;2023-12-20T07:00:08;99640.56;;;4.25;100.00
82222;BME280;71818;52.352;10.912;2023-12-20T07:02:34;99641.22;;;4.29;100.00
82222;BME280;71818;52.352;10.912;2023-12-20T07:04:59;99648.84;;;4.33;100.00
82222;BME280;71818;52.352;10.912;2023-12-20T07:07:25;99648.75;;;4.35;100.00
82222;BME280;71818;52.352;10.912;2023-12-20T07:09:51;99641.16;;;4.30;100.00
82222;BME280;71818;52.352;10.912;2023-12-20T07:12:17;99648.00;;;4.33;100.00
82222;BME280;71818;52.352;10.912;2023-12-20T07:14:45;99644.34;;;4.35;100.00
82222;BME280;71818;52.352;10.912;2023-12-20T07:17:10;99645.38;;;4.33;100.00
82222;BME280;71818;52.352;10.912;2023-12-20T07:19:38;99641.69;;;4.21;100.00
82222;BME280;71818;52.352;10.912;2023-12-20T07:22:05;99646.28;;;4.17;100.00
82222;BME280;71818;52.352;10.912;2023-12-20T07:24:31;99642.53;;;4.22;100.00
82222;BME280;71818;52.352;10.912;2023-12-20T07:26:56;99640.56;;;4.25;100.00
82222;BME280;71818;52.352;10.912;2023-12-20T07:29:22;99639.09;;;4.35;100.00
82222;BME280;71818;52.352;10.912;2023-12-20T07:31:47;99637.22;;;4.37;100.00
82222;BME280;71818;52.352;10.912;2023-12-20T07:34:12;99632.16;;;4.34;100.00
82222;BME280;71818;52.352;10.912;2023-12-20T07:36:38;99624.16;;;4.36;100.00
82222;BME280;71818;52.352;10.912;2023-12-20T07:39:03;99636.19;;;4.40;100.00
82222;BME280;71818;52.352;10.912;2023-12-20T07:41:29;99636.94;;;4.42;100.00
82222;BME280;71818;52.352;10.912;2023-12-20T07:43:54;99644.06;;;4.40;100.00
82222;BME280;71818;52.352;10.912;2023-12-20T07:46:21;99648.56;;;4.38;100.00
82222;BME280;71818;52.352;10.912;2023-12-20T07:48:49;99635.34;;;4.39;100.00
82222;BME280;71818;52.352;10.912;2023-12-20T07:51:14;99640.41;;;4.42;100.00
82222;BME280;71818;52.352;10.912;2023-12-20T07:53:40;99642.19;;;4.42;100.00
82222;BME280;71818;52.352;10.912;2023-12-20T07:56:25;99638.63;;;4.43;100.00
82222;BME280;71818;52.352;10.912;2023-12-20T07:58:51;99636.78;;;4.45;100.00
82222;BME280;71818;52.352;10.912;2023-12-20T08:01:16;99639.47;;;4.43;100.00
82222;BME280;71818;52.352;10.912;2023-12-20T08:03:43;99639.56;;;4.42;100.00
82222;BME280;71818;52.352;10.912;2023-12-20T08:06:09;99622.94;;;4.41;100.00
82222;BME280;71818;52.352;10.912;2023-12-20T08:08:34;99617.78;;;4.40;100.00
82222;BME280;71818;52.352;10.912;2023-12-20T08:11:00;99613.84;;;4.33;100.00
82222;BME280;71818;52.352;10.912;2023-12-20T08:13:26;99593.19;;;4.27;100.00
82222;BME280;71818;52.352;10.912;2023-12-20T08:15:52;99611.59;;;4.55;100.00
82222;BME280;71818;52.352;10.912;2023-12-20T08:18:17;99616.22;;;4.80;100.00
82222;BME280;71818;52.352;10.912;2023-12-20T08:20:43;99617.16;;;5.07;100.00
82222;BME280;71818;52.352;10.912;2023-12-20T08:23:08;99604.22;;;5.31;100.00
82222;BME280;71818;52.352;10.912;2023-12-20T08:25:34;99609.91;;;5.11;100.00
82222;BME280;71818;52.352;10.912;2023-12-20T08:28:01;99616.13;;;4.82;100.00
82222;BME280;71818;52.352;10.912;2023-12-20T08:30:27;99618.34;;;5.02;100.00
82222;BME280;71818;52.352;10.912;2023-12-20T08:32:52;99623.16;;;5.09;100.00
82222;BME280;71818;52.352;10.912;2023-12-20T08:35:18;99621.72;;;5.18;100.00
82222;BME280;71818;52.352;10.912;2023-12-20T08:37:44;99625.50;;;5.55;100.00
82222;BME280;71818;52.352;10.912;2023-12-20T08:40:09;99605.88;;;5.74;100.00
82222;BME280;71818;52.352;10.912;2023-12-20T08:42:35;99604.00;;;5.34;100.00
82222;BME280;71818;52.352;10.912;2023-12-20T08:45:00;99612.47;;;4.70;100.00
82222;BME280;71818;52.352;10.912;2023-12-20T08:47:26;99616.13;;;4.53;100.00
82222;BME280;71818;52.352;10.912;2023-12-20T08:49:52;99600.06;;;4.58;100.00
82222;BME280;71818;52.352;10.912;2023-12-20T08:52:25;99590.78;;;4.52;100.00
82222;BME280;71818;52.352;10.912;2023-12-20T08:54:52;99592.16;;;4.43;100.00
82222;BME280;71818;52.352;10.912;2023-12-20T08:57:22;99598.91;;;5.04;100.00
82222;BME280;71818;52.352;10.912;2023-12-20T08:59:49;99587.91;;;5.66;100.00
82222;BME280;71818;52.352;10.912;2023-12-20T09:02:14;99593.34;;;5.50;100.00
82222;BME280;71818;52.352;10.912;2023-12-20T09:04:40;99593.44;;;5.22;100.00
82222;BME280;71818;52.352;10.912;2023-12-20T09:07:06;99595.63;;;4.87;100.00
82222;BME280;71818;52.352;10.912;2023-12-20T09:09:33;99598.66;;;4.80;100.00
82222;BME280;71818;52.352;10.912;2023-12-20T09:11:58;99597.63;;;4.83;100.00
82222;BME280;71818;52.352;10.912;2023-12-20T09:14:24;99600.44;;;4.80;100.00
82222;BME280;71818;52.352;10.912;2023-12-20T09:16:49;99607.31;;;4.83;100.00
82222;BME280;71818;52.352;10.912;2023-12-20T09:19:17;99588.78;;;4.84;100.00
82222;BME280;71818;52.352;10.912;2023-12-20T09:21:42;99571.13;;;4.86;100.00
82222;BME280;71818;52.352;10.912;2023-12-20T09:24:08;99576.28;;;4.88;100.00
82222;BME280;71818;52.352;10.912;2023-12-20T09:26:34;99571.22;;;4.85;100.00
82222;BME280;71818;52.352;10.912;2023-12-20T09:29:02;99594.69;;;4.88;100.00
82222;BME280;71818;52.352;10.912;2023-12-20T09:31:27;99579.59;;;4.91;100.00
82222;BME280;71818;52.352;10.912;2023-12-20T09:33:53;99572.06;;;4.99;100.00
82222;BME280;71818;52.352;10.912;2023-12-20T09:36:18;99576.47;;;4.99;100.00
82222;BME280;71818;52.352;10.912;2023-12-20T09:38:43;99573.00;;;4.98;100.00
82222;BME280;71818;52.352;10.912;2023-12-20T09:41:09;99573.94;;;4.97;100.00
82222;BME280;71818;52.352;10.912;2023-12-20T09:43:38;99563.53;;;4.96;100.00
82222;BME280;71818;52.352;10.912;2023-12-20T09:46:05;99554.47;;;5.14;100.00
82222;BME280;71818;52.352;10.912;2023-12-20T09:48:32;99561.81;;;5.09;100.00
82222;BME280;71818;52.352;10.912;2023-12-20T09:50:59;99554.88;;;4.94;100.00
82222;BME280;71818;52.352;10.912;2023-12-20T09:53:25;99557.75;;;5.03;100.00
82222;BME280;71818;52.352;10.912;2023-12-20T09:55:59;99543.34;;;5.23;100.00
82222;BME280;71818;52.352;10.912;2023-12-20T09:58:28;99543.72;;;5.17;100.00
82222;BME280;71818;52.352;10.912;2023-12-20T10:00:55;99541.50;;;5.11;100.00
82222;BME280;71818;52.352;10.912;2023-12-20T10:03:25;99539.19;;;5.06;100.00
82222;BME280;71818;52.352;10.912;2023-12-20T10:05:54;99535.13;;;5.01;100.00
82222;BME280;71818;52.352;10.912;2023-12-20T10:08:21;99550.44;;;5.08;100.00
82222;BME280;71818;52.352;10.912;2023-12-20T10:10:47;99524.34;;;5.05;100.00
82222;BME280;71818;52.352;10.912;2023-12-20T10:13:12;99519.91;;;5.06;100.00
82222;BME280;71818;52.352;10.912;2023-12-20T10:15:38;99518.97;;;5.07;100.00
82222;BME280;71818;52.352;10.912;2023-12-20T10:18:04;99516.50;;;5.04;100.00
82222;BME280;71818;52.352;10.912;2023-12-20T10:20:31;99514.81;;;5.03;100.00
82222;BME280;71818;52.352;10.912;2023-12-20T10:23:00;99504.13;;;5.06;100.00
82222;BME280;71818;52.352;10.912;2023-12-20T10:25:26;99498.31;;;5.01;100.00
82222;BME280;71818;52.352;10.912;2023-12-20T10:28:12;99501.97;;;4.98;100.00
82222;BME280;71818;52.352;10.912;2023-12-20T10:30:39;99490.31;;;5.02;100.00
82222;BME280;71818;52.352;10.912;2023-12-20T10:33:08;99489.25;;;5.05;100.00
82222;BME280;71818;52.352;10.912;2023-12-20T10:35:38;99482.13;;;5.07;100.00
82222;BME280;71818;52.352;10.912;2023-12-20T10:38:04;99474.69;;;5.14;100.00
82222;BME280;71818;52.352;10.912;2023-12-20T10:40:31;99462.91;;;5.19;100.00
82222;BME280;71818;52.352;10.912;2023-12-20T10:42:59;99463.66;;;5.21;100.00
82222;BME280;71818;52.352;10.912;2023-12-20T10:45:26;99450.31;;;5.24;100.00
82222;BME280;71818;52.352;10.912;2023-12-20T10:47:52;99456.63;;;5.34;100.00
82222;BME280;71818;52.352;10.912;2023-12-20T10:50:19;99455.28;;;5.42;100.00
82222;BME280;71818;52.352;10.912;2023-12-20T10:52:45;99458.75;;;5.42;100.00
82222;BME280;71818;52.352;10.912;2023-12-20T10:55:11;99445.56;;;5.29;100.00
82222;BME280;71818;52.352;10.912;2023-12-20T10:57:38;99441.25;;;5.28;100.00
82222;BME280;71818;52.352;10.912;2023-12-20T11:00:06;99432.94;;;5.22;100.00
82222;BME280;71818;52.352;10.912;2023-12-20T11:02:39;99443.34;;;5.23;100.00
82222;BME280;71818;52.352;10.912;2023-12-20T11:07:36;99433.03;;;5.33;100.00
82222;BME280;71818;52.352;10.912;2023-12-20T11:10:31;99422.22;;;5.37;100.00
82222;BME280;71818;52.352;10.912;2023-12-20T11:13:22;99426.94;;;5.32;100.00
82222;BME280;71818;52.352;10.912;2023-12-20T11:15:49;99413.50;;;5.37;100.00
82222;BME280;71818;52.352;10.912;2023-12-20T11:18:15;99417.06;;;5.49;100.00
82222;BME280;71818;52.352;10.912;2023-12-20T11:20:41;99401.59;;;5.57;100.00
82222;BME280;71818;52.352;10.912;2023-12-20T11:23:10;99408.78;;;5.55;100.00
82222;BME280;71818;52.352;10.912;2023-12-20T11:25:51;99404.84;;;5.48;100.00
82222;BME280;71818;52.352;10.912;2023-12-20T11:28:21;99403.28;;;5.45;100.00
82222;BME280;71818;52.352;10.912;2023-12-20T11:30:50;99414.13;;;5.40;100.00
82222;BME280;71818;52.352;10.912;2023-12-20T11:33:17;99406.97;;;5.43;100.00
82222;BME280;71818;52.352;10.912;2023-12-20T11:35:46;99392.44;;;5.37;100.00
82222;BME280;71818;52.352;10.912;2023-12-20T11:38:13;99407.56;;;5.33;100.00
82222;BME280;71818;52.352;10.912;2023-12-20T11:40:41;99400.84;;;5.29;100.00
82222;BME280;71818;52.352;10.912;2023-12-20T11:43:06;99391.78;;;5.33;100.00
82222;BME280;71818;52.352;10.912;2023-12-20T11:45:33;99400.41;;;5.35;100.00
82222;BME280;71818;52.352;10.912;2023-12-20T11:48:02;99399.50;;;5.36;100.00
82222;BME280;71818;52.352;10.912;2023-12-20T11:50:28;99391.38;;;5.39;100.00
82222;BME280;71818;52.352;10.912;2023-12-20T11:52:56;99388.66;;;5.41;100.00
82222;BME280;71818;52.352;10.912;2023-12-20T11:55:22;99385.06;;;5.42;100.00
82222;BME280;71818;52.352;10.912;2023-12-20T11:57:50;99387.16;;;5.37;100.00
82222;BME280;71818;52.352;10.912;2023-12-20T12:00:16;99371.56;;;5.34;100.00
82222;BME280;71818;52.352;10.912;2023-12-20T12:02:42;99373.47;;;5.32;100.00
82222;BME280;71818;52.352;10.912;2023-12-20T12:05:07;99376.09;;;5.32;100.00
82222;BME280;71818;52.352;10.912;2023-12-20T12:07:34;99369.47;;;5.26;100.00
82222;BME280;71818;52.352;10.912;2023-12-20T12:10:00;99369.97;;;5.19;100.00
82222;BME280;71818;52.352;10.912;2023-12-20T12:12:26;99377.97;;;5.17;100.00
82222;BME280;71818;52.352;10.912;2023-12-20T12:14:53;99368.50;;;5.15;100.00
82222;BME280;71818;52.352;10.912;2023-12-20T12:17:18;99379.66;;;5.18;100.00
82222;BME280;71818;52.352;10.912;2023-12-20T12:19:44;99374.38;;;5.18;100.00
82222;BME280;71818;52.352;10.912;2023-12-20T12:22:11;99369.13;;;5.18;100.00
82222;BME280;71818;52.352;10.912;2023-12-20T12:24:43;99394.28;;;5.09;100.00
82222;BME280;71818;52.352;10.912;2023-12-20T12:27:09;99389.22;;;5.06;100.00
82222;BME280;71818;52.352;10.912;2023-12-20T12:29:35;99394.13;;;4.98;100.00
82222;BME280;71818;52.352;10.912;2023-12-20T12:32:04;99419.91;;;4.93;100.00
82222;BME280;71818;52.352;10.912;2023-12-20T12:34:31;99432.59;;;4.87;100.00
82222;BME280;71818;52.352;10.912;2023-12-20T12:36:57;99423.72;;;4.75;100.00
82222;BME280;71818;52.352;10.912;2023-12-20T12:39:23;99431.88;;;4.70;100.00
82222;BME280;71818;52.352;10.912;2023-12-20T12:41:50;99418.03;;;4.54;100.00
82222;BME280;71818;52.352;10.912;2023-12-20T12:44:15;99417.69;;;4.46;100.00
82222;BME280;71818;52.352;10.912;2023-12-20T12:46:41;99423.97;;;4.43;100.00
82222;BME280;71818;52.352;10.912;2023-12-20T12:49:06;99412.72;;;4.41;100.00